Time;durP1;ratioP1;P1;durP2;ratioP2;P2;SDS_P1;SDS_P2;PMS_P1;PMS_P2;Temp;Humidity;BMP_temperature;BMP_pressure;BME280_temperature;BME280_humidity;BME280_pressure;Samples;Min_cycle;Max_cycle;Signal;HPM_P1;HPM_P2
2022/02/22 00:01:33;;;;;;;6.97;4.10;;;;;;;7.15;77.72;98393.27;1538495;91;21087;-79
2022/02/22 00:04:00;;;;;;;5.03;4.37;;;;;;;7.15;77.79;98389.78;1551772;91;21718;-80
2022/02/22 00:06:26;;;;;;;6.70;4.62;;;;;;;7.13;78.00;98386.05;1551583;92;21249;-81
2022/02/22 00:08:53;;;;;;;4.78;3.50;;;;;;;7.11;78.03;98381.48;1547245;91;21113;-82
2022/02/22 00:11:19;;;;;;;4.72;3.67;;;;;;;7.10;78.11;98384.44;1554101;91;21122;-82
2022/02/22 00:13:47;;;;;;;5.85;4.08;;;;;;;7.09;78.10;98384.16;1542378;91;27541;-84
2022/02/22 00:16:14;;;;;;;5.75;4.33;;;;;;;7.06;78.18;98384.13;1530948;93;21052;-77
2022/02/22 00:18:40;;;;;;;5.28;4.60;;;;;;;7.05;78.20;98383.06;1562156;91;22195;-70
2022/02/22 00:21:06;;;;;;;5.97;5.17;;;;;;;7.06;78.16;98384.66;1551578;92;21088;-69
2022/02/22 00:23:33;;;;;;;9.33;4.85;;;;;;;7.07;78.18;98388.41;1551373;91;21040;-87
2022/02/22 00:25:59;;;;;;;5.50;4.28;;;;;;;7.09;78.21;98377.47;1536340;91;21169;-83
2022/02/22 00:28:26;;;;;;;6.25;4.45;;;;;;;7.15;78.12;98381.77;1563757;91;21580;-75
2022/02/22 00:30:52;;;;;;;5.80;4.83;;;;;;;7.16;77.97;98376.69;1553980;91;21167;-71
2022/02/22 00:33:19;;;;;;;5.47;4.53;;;;;;;7.17;77.95;98379.64;1552699;92;21443;-76
2022/02/22 00:35:45;;;;;;;11.18;6.35;;;;;;;7.19;77.92;98375.66;1557260;91;21088;-80
2022/02/22 00:38:13;;;;;;;7.92;6.70;;;;;;;7.22;77.79;98372.45;1556820;91;38093;-78
2022/02/22 00:40:39;;;;;;;5.55;5.03;;;;;;;7.21;77.80;98375.38;1551755;91;21577;-81
2022/02/22 00:43:06;;;;;;;6.40;4.65;;;;;;;7.20;77.81;98372.42;1551268;91;21168;-78
2022/02/22 00:45:34;;;;;;;5.60;5.05;;;;;;;7.19;77.84;98372.18;1563396;91;21080;-76
2022/02/22 00:48:01;;;;;;;6.50;5.03;;;;;;;7.17;77.83;98369.76;1562128;91;21055;-83
2022/02/22 00:50:32;;;;;;;8.20;5.50;;;;;;;7.13;77.95;98364.66;1551880;91;21642;-84
2022/02/22 00:52:58;;;;;;;7.70;5.17;;;;;;;7.12;78.09;98367.59;1558936;91;21095;-76
2022/02/22 00:55:25;;;;;;;6.40;5.03;;;;;;;7.10;78.21;98367.06;1551389;90;21409;-75
2022/02/22 00:57:51;;;;;;;7.85;5.85;;;;;;;7.12;78.31;98364.91;1551293;91;21132;-75
2022/02/22 01:00:19;;;;;;;9.73;6.70;;;;;;;7.17;78.34;98367.61;1555734;91;21084;-80
2022/02/22 01:02:47;;;;;;;8.38;6.20;;;;;;;7.22;78.27;98366.30;1540633;91;21557;-73
2022/02/22 01:05:14;;;;;;;14.30;7.35;;;;;;;7.23;78.10;98362.05;1554099;92;21156;-75
2022/02/22 01:07:41;;;;;;;9.08;6.87;;;;;;;7.21;78.03;98360.15;1554056;92;21275;-73
2022/02/22 01:10:08;;;;;;;8.75;7.42;;;;;;;7.18;78.01;98368.70;1565520;90;21064;-77
2022/02/22 01:12:35;;;;;;;7.78;6.85;;;;;;;7.17;78.06;98370.28;1578682;90;21064;-80
2022/02/22 01:15:01;;;;;;;7.05;5.30;;;;;;;7.14;78.10;98370.81;1578657;90;21044;-82
2022/02/22 01:17:29;;;;;;;6.85;5.90;;;;;;;7.10;78.14;98373.74;1532554;92;21088;-84
2022/02/22 01:19:56;;;;;;;7.65;6.30;;;;;;;7.05;78.26;98377.72;1548664;91;21146;-84
2022/02/22 01:22:22;;;;;;;11.35;7.55;;;;;;;7.04;78.37;98381.45;1554142;92;21048;-79
2022/02/22 01:24:48;;;;;;;8.48;7.58;;;;;;;7.06;78.38;98386.80;1552611;91;21052;-79
2022/02/22 01:27:15;;;;;;;8.23;6.05;;;;;;;7.09;78.29;98378.81;1552796;91;21072;-76
2022/02/22 01:29:41;;;;;;;7.25;5.87;;;;;;;7.13;78.20;98384.71;1503293;93;21095;-76
2022/02/22 01:32:08;;;;;;;9.83;7.25;;;;;;;7.13;78.02;98387.38;1564138;91;21142;-75
2022/02/22 01:34:34;;;;;;;14.60;8.18;;;;;;;7.13;77.96;98388.72;1525530;91;21542;-75
2022/02/22 01:37:01;;;;;;;16.82;8.48;;;;;;;7.13;77.94;98391.39;1567273;90;21069;-77
2022/02/22 01:39:28;;;;;;;15.93;9.38;;;;;;;7.12;77.96;98397.80;1566940;91;20982;-76
2022/02/22 01:41:54;;;;;;;11.40;8.45;;;;;;;7.12;77.96;98407.69;1537577;92;21088;-74
2022/02/22 01:44:22;;;;;;;12.43;8.03;;;;;;;7.10;77.97;98407.94;1561414;91;21199;-76
2022/02/22 01:46:59;;;;;;;15.95;8.85;;;;;;;7.08;77.96;98404.73;1543890;92;21071;-75
2022/02/22 01:49:26;;;;;;;11.35;7.92;;;;;;;7.06;78.01;98402.03;1557206;92;21596;-86
2022/02/22 01:51:53;;;;;;;12.43;7.60;;;;;;;7.04;78.08;98396.16;1543361;93;21617;-82
2022/02/22 01:54:21;;;;;;;15.00;7.97;;;;;;;7.03;78.11;98399.36;1533859;91;21628;-81
2022/02/22 01:56:48;;;;;;;13.78;8.53;;;;;;;7.00;78.13;98404.67;1547827;92;21171;-82
2022/02/22 01:59:14;;;;;;;11.85;7.53;;;;;;;6.98;78.29;98399.32;1505773;92;21564;-83
2022/02/22 02:01:41;;;;;;;17.27;8.53;;;;;;;6.96;78.36;98392.89;1524384;92;21113;-82
2022/02/22 02:04:08;;;;;;;8.90;7.60;;;;;;;6.97;78.40;98395.84;1546830;92;21044;-80
2022/02/22 02:06:36;;;;;;;7.50;6.12;;;;;;;7.01;78.37;98398.80;1556284;91;21079;-80
2022/02/22 02:09:07;;;;;;;10.13;7.53;;;;;;;7.03;78.27;98397.21;1528505;93;21756;-78
2022/02/22 02:11:46;;;;;;;13.88;7.78;;;;;;;7.02;78.20;98395.06;1510213;92;21705;-77
2022/02/22 02:14:12;;;;;;;12.03;6.97;;;;;;;7.02;78.18;98396.41;1505461;93;21455;-81
2022/02/22 02:16:39;;;;;;;11.90;7.20;;;;;;;6.99;78.19;98399.08;1551734;92;21101;-80
2022/02/22 02:19:09;;;;;;;13.53;8.80;;;;;;;6.96;78.22;98394.75;1551663;91;21553;-82
2022/02/22 02:21:36;;;;;;;16.35;9.15;;;;;;;6.93;78.31;98393.41;1552296;91;21177;-81
2022/02/22 02:24:20;;;;;;;13.50;9.50;;;;;;;6.89;78.35;98390.19;1553776;91;21103;-80
2022/02/22 02:26:47;;;;;;;13.93;9.35;;;;;;;6.93;78.51;98393.95;1517170;92;21538;-75
2022/02/22 02:29:16;;;;;;;15.15;8.95;;;;;;;6.91;78.47;98392.05;1517122;92;21614;-79
2022/02/22 02:31:44;;;;;;;18.10;9.50;;;;;;;6.90;78.51;98389.94;1556040;91;21088;-77
2022/02/22 02:34:13;;;;;;;15.83;9.13;;;;;;;6.93;78.59;98393.95;1551481;92;21163;-77
2022/02/22 02:36:40;;;;;;;13.93;9.00;;;;;;;6.88;78.52;98398.73;1550756;91;21080;-76
2022/02/22 02:39:07;;;;;;;10.95;8.80;;;;;;;6.81;78.72;98405.37;1539868;91;21285;-78
2022/02/22 02:41:34;;;;;;;9.63;7.78;;;;;;;6.78;78.88;98408.00;1564189;91;21161;-78
2022/02/22 02:44:10;;;;;;;12.28;7.62;;;;;;;6.74;79.05;98414.92;1540503;92;21619;-80
2022/02/22 02:46:37;;;;;;;15.38;8.95;;;;;;;6.72;79.23;98418.90;1563756;90;21860;-76
2022/02/22 02:49:05;;;;;;;8.25;6.83;;;;;;;6.70;79.48;98429.05;1578698;90;21107;-84
2022/02/22 02:51:33;;;;;;;8.50;7.20;;;;;;;6.68;79.74;98431.16;1564602;91;21576;-79
2022/02/22 02:53:59;;;;;;;9.80;6.30;;;;;;;6.69;79.94;98438.93;1553123;91;21433;-72
2022/02/22 02:56:25;;;;;;;7.67;6.72;;;;;;;6.71;80.15;98432.81;1560542;90;21021;-75
2022/02/22 02:58:53;;;;;;;14.00;7.60;;;;;;;6.73;80.24;98437.36;1575607;91;21868;-78
2022/02/22 03:01:20;;;;;;;9.53;7.65;;;;;;;6.68;80.30;98444.00;1565829;90;21031;-78
2022/02/22 03:03:46;;;;;;;10.58;7.40;;;;;;;6.67;80.52;98450.39;1565698;91;21060;-76
2022/02/22 03:06:13;;;;;;;9.60;6.78;;;;;;;6.63;80.66;98443.95;1571083;90;21088;-80
2022/02/22 03:08:40;;;;;;;11.33;7.47;;;;;;;6.60;80.92;98448.48;1565184;91;21104;-83
2022/02/22 03:11:06;;;;;;;11.95;9.45;;;;;;;6.58;81.04;98455.40;1541798;93;21091;-81
2022/02/22 03:13:32;;;;;;;9.98;8.08;;;;;;;6.58;81.14;98460.74;1576504;91;21072;-84
2022/02/22 03:15:59;;;;;;;10.10;8.18;;;;;;;6.59;81.26;98462.89;1565074;90;21590;-82
2022/02/22 03:18:25;;;;;;;10.65;8.43;;;;;;;6.60;81.36;98462.36;1565343;91;21115;-82
2022/02/22 03:20:52;;;;;;;12.40;8.83;;;;;;;6.61;81.51;98463.45;1565103;91;21061;-85
2022/02/22 03:23:21;;;;;;;10.25;8.83;;;;;;;6.67;81.63;98458.93;1565798;91;22363;-89
2022/02/22 03:25:48;;;;;;;10.78;9.05;;;;;;;6.71;81.63;98456.05;1551058;91;21552;-85
2022/02/22 03:28:15;;;;;;;19.73;15.23;;;;;;;6.76;81.55;98456.88;1564489;91;21039;-84
2022/02/22 03:30:42;;;;;;;30.65;18.67;;;;;;;6.77;81.47;98465.70;1564456;91;22270;-86
2022/02/22 03:33:10;;;;;;;20.40;13.03;;;;;;;6.77;81.42;98473.19;1564521;91;21095;-85
2022/02/22 03:35:38;;;;;;;14.83;11.70;;;;;;;6.75;81.46;98475.85;1564111;91;21169;-85
2022/02/22 03:38:05;;;;;;;14.13;9.40;;;;;;;6.73;81.47;98484.11;1541164;93;21513;-85
2022/02/22 03:40:31;;;;;;;13.00;10.58;;;;;;;6.70;81.50;98489.16;1554881;91;21139;-85
2022/02/22 03:42:58;;;;;;;13.98;10.03;;;;;;;6.66;81.68;98484.06;1566383;91;21571;-77
2022/02/22 03:45:24;;;;;;;15.30;10.60;;;;;;;6.61;81.94;98488.83;1565752;91;21599;-82
2022/02/22 03:47:51;;;;;;;15.78;10.65;;;;;;;6.61;82.08;98494.17;1547174;91;21505;-81
2022/02/22 03:50:18;;;;;;;13.98;10.03;;;;;;;6.62;82.24;98496.31;1567870;91;21034;-82
2022/02/22 03:52:44;;;;;;;11.25;9.30;;;;;;;6.63;82.33;98489.89;1569120;91;21032;-82
2022/02/22 03:55:11;;;;;;;19.02;10.58;;;;;;;6.64;82.37;98494.98;1567762;91;21042;-79
2022/02/22 03:57:38;;;;;;;12.33;9.63;;;;;;;6.61;82.46;98495.50;1567794;90;21053;-82
2022/02/22 04:00:09;;;;;;;19.23;11.35;;;;;;;6.62;82.49;98490.41;1568124;91;21191;-78
2022/02/22 04:02:36;;;;;;;13.58;10.58;;;;;;;6.61;82.50;98490.69;1548782;91;21055;-80
2022/02/22 04:05:05;;;;;;;16.97;12.37;;;;;;;6.60;82.60;98494.41;1567772;91;21101;-81
2022/02/22 04:07:35;;;;;;;14.85;11.90;;;;;;;6.60;82.67;98491.74;1566903;90;21024;-82
2022/02/22 04:10:03;;;;;;;12.20;9.30;;;;;;;6.60;82.71;98508.58;1567109;90;21120;-80
2022/02/22 04:12:29;;;;;;;15.63;12.58;;;;;;;6.61;82.82;98502.71;1543954;93;21860;-80
2022/02/22 04:14:57;;;;;;;17.20;11.80;;;;;;;6.58;82.86;98505.34;1536159;91;21096;-81
2022/02/22 04:17:24;;;;;;;11.55;9.65;;;;;;;6.65;83.08;98507.30;1568291;91;22281;-84
2022/02/22 04:19:50;;;;;;;15.58;10.65;;;;;;;6.72;83.07;98504.39;1562518;91;21052;-81
2022/02/22 04:22:19;;;;;;;10.45;9.00;;;;;;;6.77;82.93;98499.91;1554668;92;21487;-85
2022/02/22 04:24:46;;;;;;;12.28;10.30;;;;;;;6.83;82.75;98502.91;1551905;91;21134;-85
2022/02/22 04:27:14;;;;;;;16.75;13.53;;;;;;;6.78;82.52;98502.05;1554386;92;21126;-88
2022/02/22 04:29:40;;;;;;;15.03;9.53;;;;;;;6.75;82.57;98505.24;1554198;92;21545;-83
2022/02/22 04:32:07;;;;;;;13.20;10.60;;;;;;;6.71;82.61;98501.47;1551744;91;21103;-82
2022/02/22 04:34:34;;;;;;;13.10;10.18;;;;;;;6.66;82.67;98504.91;1554651;91;21110;-82
2022/02/22 04:37:02;;;;;;;16.87;11.97;;;;;;;6.63;82.75;98505.39;1554409;92;21985;-82
2022/02/22 04:39:29;;;;;;;18.07;12.35;;;;;;;6.59;82.88;98506.95;1547099;91;21319;-79
2022/02/22 04:41:55;;;;;;;17.82;13.78;;;;;;;6.60;83.06;98507.77;1567879;91;20955;-84
2022/02/22 04:44:22;;;;;;;24.20;15.78;;;;;;;6.65;83.17;98511.30;1567202;91;21592;-84
2022/02/22 04:46:48;;;;;;;21.85;15.38;;;;;;;6.70;83.12;98517.22;1546551;91;21024;-83
2022/02/22 04:49:15;;;;;;;21.80;15.10;;;;;;;6.74;83.01;98525.00;1567461;91;21169;-83
2022/02/22 04:51:42;;;;;;;23.07;16.12;;;;;;;6.76;82.96;98533.02;1540128;92;21042;-84
2022/02/22 04:54:09;;;;;;;21.33;15.80;;;;;;;6.80;82.87;98527.48;1564302;91;21055;-82
2022/02/22 04:56:36;;;;;;;24.80;17.32;;;;;;;6.77;82.72;98527.16;1542539;92;21102;-86
2022/02/22 04:59:02;;;;;;;20.50;14.68;;;;;;;6.72;82.66;98526.58;1568086;91;21071;-86
2022/02/22 05:01:29;;;;;;;19.32;13.85;;;;;;;6.69;82.73;98531.09;1547251;91;21226;-89
2022/02/22 05:03:55;;;;;;;17.32;13.58;;;;;;;6.67;82.74;98534.55;1547217;91;21135;-83
2022/02/22 05:06:22;;;;;;;20.60;14.07;;;;;;;6.62;82.71;98538.50;1567454;91;21048;-83
2022/02/22 05:08:48;;;;;;;22.75;15.65;;;;;;;6.60;82.90;98537.96;1543309;91;21572;-81
2022/02/22 05:11:15;;;;;;;18.82;14.73;;;;;;;6.63;82.95;98545.46;1567885;91;21067;-82
2022/02/22 05:13:41;;;;;;;17.75;13.25;;;;;;;6.65;82.92;98551.90;1561388;91;21329;-85
2022/02/22 05:16:07;;;;;;;15.83;13.10;;;;;;;6.62;82.86;98554.53;1557117;91;21056;-81
2022/02/22 05:18:34;;;;;;;18.30;12.88;;;;;;;6.61;82.87;98553.46;1567931;91;21037;-79
2022/02/22 05:21:01;;;;;;;15.08;11.03;;;;;;;6.60;82.74;98562.00;1567831;91;21104;-83
2022/02/22 05:23:35;;;;;;;16.62;12.28;;;;;;;6.56;82.72;98568.91;1567930;91;21818;-81
2022/02/22 05:26:06;;;;;;;13.10;10.45;;;;;;;6.52;82.69;98573.14;1567931;91;21164;-82
2022/02/22 05:28:33;;;;;;;14.53;10.55;;;;;;;6.46;82.59;98569.61;1567596;91;20996;-81
2022/02/22 05:30:59;;;;;;;15.45;10.82;;;;;;;6.41;82.65;98570.89;1543643;93;21341;-80
2022/02/22 05:33:27;;;;;;;16.15;11.08;;;;;;;6.39;82.71;98575.66;1557651;92;21161;-83
2022/02/22 05:35:54;;;;;;;20.08;11.33;;;;;;;6.41;82.84;98571.41;1567618;91;21091;-81
2022/02/22 05:38:20;;;;;;;14.90;10.82;;;;;;;6.46;82.78;98572.80;1565335;90;21138;-83
2022/02/22 05:40:47;;;;;;;18.45;11.48;;;;;;;6.50;82.51;98569.91;1552516;91;21140;-82
2022/02/22 05:43:14;;;;;;;13.88;10.70;;;;;;;6.50;82.32;98570.72;1552377;91;21049;-79
2022/02/22 05:45:41;;;;;;;11.57;9.05;;;;;;;6.49;82.03;98570.43;1551603;92;21557;-82
2022/02/22 05:48:07;;;;;;;12.23;9.70;;;;;;;6.50;81.87;98576.58;1551719;92;21104;-81
2022/02/22 05:50:34;;;;;;;11.38;8.55;;;;;;;6.45;81.59;98588.02;1549585;91;21258;-81
2022/02/22 05:53:00;;;;;;;12.07;9.50;;;;;;;6.38;81.67;98599.41;1554174;90;20972;-85
2022/02/22 05:55:27;;;;;;;12.75;10.50;;;;;;;6.35;81.81;98602.58;1553896;90;21076;-78
2022/02/22 05:57:53;;;;;;;13.22;10.00;;;;;;;6.35;81.82;98605.25;1551688;92;21569;-79
2022/02/22 06:00:21;;;;;;;13.20;10.85;;;;;;;6.35;81.85;98606.59;1552779;91;21069;-78
2022/02/22 06:02:48;;;;;;;16.17;10.93;;;;;;;6.37;81.74;98615.70;1564138;91;21258;-78
2022/02/22 06:05:14;;;;;;;10.45;9.28;;;;;;;6.40;81.68;98611.18;1558262;92;21610;-80
2022/02/22 06:07:42;;;;;;;15.50;10.95;;;;;;;6.42;81.30;98613.09;1551576;91;21043;-78
2022/02/22 06:10:09;;;;;;;14.03;9.20;;;;;;;6.41;81.26;98618.14;1552799;91;21613;-87
2022/02/22 06:12:36;;;;;;;11.18;9.10;;;;;;;6.40;81.08;98625.34;1556713;91;21101;-86
2022/02/22 06:15:05;;;;;;;12.00;8.15;;;;;;;6.39;80.93;98629.59;1551856;91;21034;-87
2022/02/22 06:17:41;;;;;;;12.65;9.45;;;;;;;6.35;80.72;98630.63;1551777;92;21037;-87
2022/02/22 06:20:11;;;;;;;12.43;8.13;;;;;;;6.30;80.51;98631.89;1551845;92;20969;-88
2022/02/22 06:22:37;;;;;;;12.18;9.38;;;;;;;6.28;80.11;98633.21;1525444;93;21122;-81
2022/02/22 06:25:06;;;;;;;14.15;9.08;;;;;;;6.23;80.14;98638.48;1551301;92;21155;-83
2022/02/22 06:27:32;;;;;;;10.93;7.72;;;;;;;6.23;80.35;98641.96;1537887;92;21170;-87
2022/02/22 06:29:59;;;;;;;13.05;8.28;;;;;;;6.28;80.07;98639.36;1553001;92;21068;-83
2022/02/22 06:32:25;;;;;;;10.85;7.30;;;;;;;6.32;79.66;98639.66;1551306;91;21081;-82
2022/02/22 06:34:51;;;;;;;11.97;8.10;;;;;;;6.34;79.33;98644.21;1532344;92;21155;-82
2022/02/22 06:37:19;;;;;;;9.03;7.37;;;;;;;6.37;79.03;98639.20;1554422;92;21726;-80
2022/02/22 06:39:46;;;;;;;10.85;7.80;;;;;;;6.39;78.44;98646.95;1552781;92;21373;-81
2022/02/22 06:42:12;;;;;;;10.98;8.43;;;;;;;6.39;78.02;98654.43;1552109;92;21016;-87
2022/02/22 06:44:39;;;;;;;13.62;9.85;;;;;;;6.38;77.59;98650.14;1553542;91;21722;-82
2022/02/22 06:47:06;;;;;;;14.07;9.28;;;;;;;6.39;77.51;98659.77;1552610;91;21170;-90
2022/02/22 06:49:32;;;;;;;11.80;8.43;;;;;;;6.41;77.54;98660.88;1517091;93;21057;-86
2022/02/22 06:51:59;;;;;;;11.73;9.43;;;;;;;6.43;77.34;98662.75;1531570;93;21244;-88
2022/02/22 06:54:26;;;;;;;11.50;7.53;;;;;;;6.45;77.29;98661.98;1538986;92;21064;-84
2022/02/22 06:56:52;;;;;;;11.43;7.80;;;;;;;6.46;76.84;98671.09;1561996;91;21648;-85
2022/02/22 06:59:18;;;;;;;9.30;7.50;;;;;;;6.46;76.00;98663.61;1553859;91;21132;-82
2022/02/22 07:01:45;;;;;;;14.13;8.30;;;;;;;6.46;75.42;98660.94;1554198;92;21058;-81
2022/02/22 07:04:11;;;;;;;9.93;6.45;;;;;;;6.48;75.33;98658.80;1554892;92;21137;-81
2022/02/22 07:06:38;;;;;;;8.40;6.87;;;;;;;6.52;74.42;98659.39;1554406;91;21583;-82
2022/02/22 07:09:06;;;;;;;10.28;7.08;;;;;;;6.55;74.18;98662.11;1554936;92;21054;-80
2022/02/22 07:11:36;;;;;;;10.18;6.72;;;;;;;6.60;73.60;98660.84;1555420;91;21050;-80
2022/02/22 07:14:03;;;;;;;11.15;8.03;;;;;;;6.66;72.86;98665.72;1561856;91;21095;-81
2022/02/22 07:16:30;;;;;;;13.03;8.45;;;;;;;6.69;72.50;98666.55;1561997;91;21630;-79
2022/02/22 07:18:57;;;;;;;13.83;7.47;;;;;;;6.72;72.44;98678.88;1554578;91;21069;-80
2022/02/22 07:21:23;;;;;;;14.93;7.85;;;;;;;6.74;71.97;98670.09;1559907;91;21034;-80
2022/02/22 07:23:50;;;;;;;7.92;7.00;;;;;;;6.73;71.05;98674.34;1554899;89;21070;-80
2022/02/22 07:26:16;;;;;;;15.20;9.00;;;;;;;6.70;71.02;98681.53;1553296;92;21058;-79
2022/02/22 07:28:43;;;;;;;16.17;9.35;;;;;;;6.70;70.96;98676.99;1553463;91;21078;-80
2022/02/22 07:31:11;;;;;;;14.28;7.55;;;;;;;6.70;70.96;98678.86;1552343;91;21087;-80
2022/02/22 07:33:41;;;;;;;12.78;6.75;;;;;;;6.69;70.75;98683.39;1552769;91;21095;-81
2022/02/22 07:36:07;;;;;;;12.55;8.33;;;;;;;6.67;69.31;98682.00;1552087;92;21624;-77
2022/02/22 07:38:34;;;;;;;9.15;7.15;;;;;;;6.62;69.12;98686.77;1540973;91;21084;-78
2022/02/22 07:41:01;;;;;;;11.57;6.65;;;;;;;6.60;68.86;98688.89;1551000;91;21187;-83
2022/02/22 07:43:27;;;;;;;11.15;7.87;;;;;;;6.58;68.79;98687.80;1551132;92;21075;-84
2022/02/22 07:45:53;;;;;;;14.20;8.90;;;;;;;6.61;68.92;98685.69;1550352;92;20997;-84
2022/02/22 07:48:20;;;;;;;11.73;8.33;;;;;;;6.63;69.09;98684.38;1514322;93;21118;-82
2022/02/22 07:50:47;;;;;;;12.75;8.48;;;;;;;6.68;69.00;98685.77;1537365;92;21092;-83
2022/02/22 07:53:13;;;;;;;12.07;8.55;;;;;;;6.71;68.72;98699.98;1526188;94;21224;-84
2022/02/22 07:55:40;;;;;;;9.68;8.03;;;;;;;6.74;68.29;98704.83;1547747;92;21168;-87
2022/02/22 07:58:06;;;;;;;11.73;7.40;;;;;;;6.75;67.94;98698.43;1549277;91;21056;-87
2022/02/22 08:00:33;;;;;;;14.90;7.22;;;;;;;6.79;67.54;98694.72;1561568;91;21018;-89
2022/02/22 08:02:59;;;;;;;11.85;7.65;;;;;;;6.83;66.76;98698.51;1548046;92;21112;-87
2022/02/22 08:05:26;;;;;;;9.73;6.85;;;;;;;6.87;65.95;98700.95;1545401;92;21649;-90
2022/02/22 08:07:52;;;;;;;13.83;7.70;;;;;;;6.90;65.40;98686.59;1549671;92;21087;-87
2022/02/22 08:10:19;;;;;;;10.25;7.15;;;;;;;6.92;64.32;98699.16;1549187;92;21132;-87
2022/02/22 08:12:46;;;;;;;9.55;6.28;;;;;;;6.98;63.98;98702.69;1548112;92;21063;-86
2022/02/22 08:15:12;;;;;;;12.93;6.60;;;;;;;7.04;61.96;98699.55;1513880;94;21088;-88
2022/02/22 08:17:40;;;;;;;16.12;6.47;;;;;;;7.08;61.49;98704.67;1548882;92;21192;-83
2022/02/22 08:20:09;;;;;;;11.75;7.33;;;;;;;7.13;60.04;98702.05;1555910;92;21136;-84
2022/02/22 08:22:36;;;;;;;13.13;6.30;;;;;;;7.19;59.24;98708.55;1536533;92;21074;-83
2022/02/22 08:25:03;;;;;;;13.15;6.00;;;;;;;7.24;58.35;98701.11;1548876;92;21068;-87
2022/02/22 08:27:31;;;;;;;9.68;5.42;;;;;;;7.29;57.63;98696.59;1540025;92;21111;-79
2022/02/22 08:29:57;;;;;;;8.05;5.03;;;;;;;7.35;56.37;98702.80;1535582;93;21180;-79
2022/02/22 08:32:23;;;;;;;6.95;4.50;;;;;;;7.41;55.21;98698.59;1546464;92;21074;-76
2022/02/22 08:34:49;;;;;;;6.40;4.37;;;;;;;7.49;54.80;98702.66;1550793;92;21030;-76
2022/02/22 08:37:16;;;;;;;4.28;3.80;;;;;;;7.56;54.38;98701.12;1555981;91;21141;-78
2022/02/22 08:39:43;;;;;;;6.92;4.25;;;;;;;7.63;53.65;98711.08;1556165;91;21602;-83
2022/02/22 08:42:10;;;;;;;4.95;3.58;;;;;;;7.68;51.49;98707.92;1564922;91;21251;-83
2022/02/22 08:44:37;;;;;;;3.80;2.75;;;;;;;7.71;50.04;98702.08;1565209;91;20986;-88
2022/02/22 08:47:05;;;;;;;6.28;3.10;;;;;;;7.76;49.19;98712.02;1565200;91;21023;-93
2022/02/22 08:49:33;;;;;;;6.72;4.45;;;;;;;7.80;47.15;98713.11;1565130;91;20995;-85
2022/02/22 08:52:00;;;;;;;8.33;5.15;;;;;;;7.83;46.48;98715.27;1564376;91;21119;-87
2022/02/22 08:54:26;;;;;;;5.45;3.12;;;;;;;7.87;45.95;98702.98;1569846;90;21232;-81
2022/02/22 08:56:52;;;;;;;3.87;2.62;;;;;;;7.92;45.74;98717.74;1566243;91;21055;-80
2022/02/22 08:59:19;;;;;;;7.85;4.08;;;;;;;7.97;45.06;98712.95;1565444;91;21143;-82
2022/02/22 09:01:45;;;;;;;4.62;3.42;;;;;;;8.00;45.70;98713.80;1564756;91;22024;-79
2022/02/22 09:04:11;;;;;;;4.83;2.90;;;;;;;8.03;45.09;98712.75;1546783;90;21146;-76
2022/02/22 09:06:38;;;;;;;8.35;2.52;;;;;;;8.09;44.34;98709.05;1579185;89;21308;-77
2022/02/22 09:09:04;;;;;;;5.10;2.80;;;;;;;8.14;43.30;98718.45;1577720;91;21557;-77
2022/02/22 09:11:31;;;;;;;6.58;3.00;;;;;;;8.18;42.18;98713.38;1586589;89;21125;-78
2022/02/22 09:13:57;;;;;;;10.50;2.85;;;;;;;8.21;41.86;98718.22;1577274;90;22331;-76
2022/02/22 09:16:24;;;;;;;5.62;3.08;;;;;;;8.25;41.45;98724.13;1577468;90;21708;-79
2022/02/22 09:18:53;;;;;;;5.30;3.02;;;;;;;8.29;42.18;98721.27;1577620;91;21182;-79
2022/02/22 09:21:19;;;;;;;6.45;3.70;;;;;;;8.35;42.31;98712.70;1577879;91;21084;-80
2022/02/22 09:23:49;;;;;;;12.60;5.17;;;;;;;8.39;42.00;98713.02;1577845;90;21629;-77
2022/02/22 09:26:15;;;;;;;6.42;3.85;;;;;;;8.42;42.50;98713.30;1579984;90;21142;-84
2022/02/22 09:28:45;;;;;;;6.00;3.85;;;;;;;8.47;42.51;98705.29;1554517;92;22213;-78
2022/02/22 09:31:11;;;;;;;6.40;3.47;;;;;;;8.49;42.48;98709.84;1565883;90;21134;-76
2022/02/22 09:33:38;;;;;;;7.00;3.52;;;;;;;8.55;42.59;98708.80;1555071;92;21112;-79
2022/02/22 09:36:04;;;;;;;4.92;3.83;;;;;;;8.61;42.99;98706.95;1546802;90;21128;-78
2022/02/22 09:38:31;;;;;;;7.80;4.33;;;;;;;8.68;42.51;98707.55;1536058;92;21572;-82
2022/02/22 09:41:00;;;;;;;9.13;4.12;;;;;;;8.72;42.30;98704.08;1534193;91;21097;-78
2022/02/22 09:43:27;;;;;;;7.28;3.85;;;;;;;8.80;41.95;98711.33;1530879;93;21575;-78
2022/02/22 09:45:53;;;;;;;6.78;5.08;;;;;;;8.88;42.17;98713.49;1531751;91;21035;-76
2022/02/22 09:48:21;;;;;;;11.20;4.03;;;;;;;8.93;41.93;98701.45;1506777;94;21622;-78
2022/02/22 09:50:47;;;;;;;6.65;4.10;;;;;;;8.99;41.96;98714.63;1550908;92;21124;-79
2022/02/22 09:53:14;;;;;;;4.92;3.35;;;;;;;9.01;41.67;98707.13;1551503;92;21084;-80
2022/02/22 09:55:40;;;;;;;5.10;3.27;;;;;;;9.03;41.55;98703.64;1554159;92;21834;-79
2022/02/22 09:58:06;;;;;;;13.78;4.35;;;;;;;9.06;41.21;98708.48;1556022;90;21039;-80
2022/02/22 10:00:33;;;;;;;5.12;4.17;;;;;;;9.12;41.32;98705.27;1550596;90;21109;-77
2022/02/22 10:02:59;;;;;;;4.20;3.42;;;;;;;9.14;41.39;98694.56;1546241;92;21079;-85
2022/02/22 10:05:27;;;;;;;6.30;3.92;;;;;;;9.17;40.84;98693.20;1556999;90;21086;-77
2022/02/22 10:08:00;;;;;;;6.05;3.67;;;;;;;9.16;40.65;98700.98;1556936;91;21161;-75
2022/02/22 10:10:37;;;;;;;6.08;4.30;;;;;;;9.16;40.97;98697.77;1537100;92;21010;-79
2022/02/22 10:13:09;;;;;;;8.65;4.78;;;;;;;9.18;41.24;98691.61;1510379;92;21151;-77
2022/02/22 10:15:41;;;;;;;6.40;4.05;;;;;;;9.26;41.49;98685.44;1557630;91;21627;-77
2022/02/22 10:18:08;;;;;;;5.85;3.67;;;;;;;9.33;40.66;98694.86;1553030;91;21117;-77
2022/02/22 10:20:36;;;;;;;7.05;4.12;;;;;;;9.35;40.79;98695.95;1536890;92;21210;-76
2022/02/22 10:23:03;;;;;;;7.00;3.92;;;;;;;9.37;40.99;98687.08;1552185;91;21571;-76
2022/02/22 10:25:30;;;;;;;12.33;4.55;;;;;;;9.41;40.63;98688.95;1544956;91;21041;-78
2022/02/22 10:27:59;;;;;;;6.87;3.50;;;;;;;9.45;40.01;98681.17;1552333;92;21069;-75
2022/02/22 10:30:43;;;;;;;9.45;4.37;;;;;;;9.46;39.93;98688.97;1557558;91;21602;-79
2022/02/22 10:33:27;;;;;;;8.83;4.50;;;;;;;9.47;39.56;98693.80;1550178;91;21187;-79
2022/02/22 10:36:04;;;;;;;6.65;4.40;;;;;;;9.51;39.56;98701.58;1552148;90;21069;-74
2022/02/22 10:38:28;;;;;;;10.10;3.58;;;;;;;9.54;39.39;98685.73;1552973;91;21598;-78
2022/02/22 10:41:01;;;;;;;5.53;3.30;;;;;;;9.58;39.96;98680.67;1543366;91;21544;-77
2022/02/22 10:43:33;;;;;;;;;;;;;;;9.63;40.08;98680.14;1537520;92;21170;-72
2022/02/22 10:46:02;;;;;;;4.90;2.98;;;;;;;9.68;40.01;98684.70;1532246;93;22267;-72
2022/02/22 10:48:35;;;;;;;9.93;4.72;;;;;;;9.71;39.89;98685.49;1526378;92;21150;-74
2022/02/22 10:51:05;;;;;;;5.55;3.10;;;;;;;9.72;39.82;98680.40;1508747;93;21007;-74
2022/02/22 10:53:38;;;;;;;12.43;5.42;;;;;;;9.73;40.10;98678.52;1554825;90;21087;-70
2022/02/22 10:56:11;;;;;;;10.82;3.67;;;;;;;9.78;40.43;98688.73;1535241;92;21568;-75
2022/02/22 10:58:39;;;;;;;12.78;3.40;;;;;;;9.89;40.14;98679.57;1510269;93;24927;-73
2022/02/22 11:01:13;;;;;;;4.08;3.67;;;;;;;9.96;39.12;98699.45;1548807;92;21277;-72
2022/02/22 11:03:45;;;;;;;6.87;3.33;;;;;;;9.96;39.04;98679.31;1581119;90;21037;-83
2022/02/22 11:06:13;;;;;;;5.35;3.30;;;;;;;9.97;38.82;98695.16;1572291;90;22209;-81
2022/02/22 11:08:42;;;;;;;8.18;2.90;;;;;;;10.02;38.23;98696.48;1571784;90;21047;-86
2022/02/22 11:11:21;;;;;;;6.53;3.85;;;;;;;10.07;37.69;98676.89;1563039;90;21856;-87
2022/02/22 11:14:25;;;;;;;5.22;2.72;;;;;;;10.13;37.54;98682.50;1563659;90;21053;-84
2022/02/22 11:16:53;;;;;;;;;;;;;;;10.18;37.39;98681.17;1557756;90;21059;-83
2022/02/22 11:19:34;;;;;;;4.08;2.70;;;;;;;10.25;37.68;98673.66;1557819;90;20251;-80
2022/02/22 11:22:23;;;;;;;4.42;2.40;;;;;;;10.34;37.23;98685.45;1505824;94;21147;-77
2022/02/22 11:24:55;;;;;;;5.28;2.55;;;;;;;10.40;37.13;98674.16;1556585;92;21766;-76
2022/02/22 11:27:30;;;;;;;6.25;2.80;;;;;;;10.47;37.28;98691.59;1551441;90;21032;-76
2022/02/22 11:30:07;;;;;;;3.45;2.42;;;;;;;10.52;36.27;98692.11;1555356;90;21033;-74
2022/02/22 11:32:35;;;;;;;9.08;2.87;;;;;;;10.49;36.26;98680.04;1579261;90;21015;-80
2022/02/22 11:35:13;;;;;;;10.32;3.05;;;;;;;10.49;36.62;98704.77;1555651;90;21123;-81
2022/02/22 11:37:39;;;;;;;4.83;2.58;;;;;;;10.47;36.70;98686.22;1526860;92;21151;-79
2022/02/22 11:40:08;;;;;;;5.03;2.92;;;;;;;10.49;36.76;98676.55;1548468;90;21115;-84